createdAt,value
2023-08-25T00:02:23.498Z,0.70
2023-08-25T00:04:50.449Z,0.70
2023-08-25T00:09:47.048Z,0.80
2023-08-25T00:12:13.734Z,0.70
2023-08-25T00:17:07.146Z,0.90
2023-08-25T00:19:34.313Z,0.98
2023-08-25T00:22:00.990Z,0.80
2023-08-25T00:26:54.215Z,0.50
2023-08-25T00:29:21.469Z,0.68
2023-08-25T00:31:48.127Z,0.85
2023-08-25T00:36:41.522Z,0.85
2023-08-25T00:39:08.619Z,0.70
2023-08-25T00:41:35.310Z,0.98
2023-08-25T00:46:28.650Z,0.88
2023-08-25T00:48:56.353Z,0.57
2023-08-25T00:51:23.675Z,0.70
2023-08-25T00:53:51.006Z,1.25
2023-08-25T00:56:19.052Z,0.90
2023-08-25T00:58:46.177Z,0.85
2023-08-25T01:01:13.502Z,0.65
2023-08-25T01:03:40.655Z,1.00
2023-08-25T01:06:10.107Z,0.93
2023-08-25T01:08:38.578Z,0.70
2023-08-25T01:11:29.923Z,0.80
2023-08-25T01:14:02.964Z,1.00
2023-08-25T01:19:01.830Z,1.23
2023-08-25T01:21:28.784Z,0.73
2023-08-25T01:24:17.478Z,0.60
2023-08-25T01:26:44.837Z,0.70
2023-08-25T01:29:11.475Z,0.98
2023-08-25T01:34:04.775Z,0.93
2023-08-25T01:36:41.145Z,0.88
2023-08-25T01:39:15.165Z,0.70
2023-08-25T01:41:47.673Z,0.47
2023-08-25T01:44:17.882Z,0.63
2023-08-25T01:46:50.216Z,0.80
2023-08-25T01:49:18.397Z,0.50
2023-08-25T01:51:46.285Z,0.50
2023-08-25T01:54:14.775Z,0.50
2023-08-25T01:56:41.574Z,0.60
2023-08-25T01:59:08.270Z,0.50
2023-08-25T02:04:01.591Z,0.60
2023-08-25T02:08:55.455Z,0.60
2023-08-25T02:13:49.019Z,0.70
2023-08-25T02:16:16.191Z,0.50
2023-08-25T02:18:43.022Z,0.70
2023-08-25T02:23:36.241Z,0.43
2023-08-25T02:28:29.875Z,0.60
2023-08-25T02:33:23.039Z,0.57
2023-08-25T02:35:49.718Z,0.60
2023-08-25T02:40:43.639Z,0.55
2023-08-25T02:43:10.413Z,0.47
2023-08-25T02:45:37.684Z,0.40
2023-08-25T02:48:05.058Z,0.90
2023-08-25T02:50:31.980Z,0.50
2023-08-25T02:52:58.622Z,0.50
2023-08-25T02:57:53.454Z,0.50
2023-08-25T03:00:24.776Z,0.50
2023-08-25T03:02:52.677Z,0.60
2023-08-25T03:05:19.868Z,0.52
2023-08-25T03:07:46.732Z,0.55
2023-08-25T03:10:13.569Z,0.60
2023-08-25T03:12:40.918Z,0.63
2023-08-25T03:15:08.509Z,0.40
2023-08-25T03:17:35.514Z,0.50
2023-08-25T03:20:03.907Z,0.95
2023-08-25T03:22:30.895Z,0.65
2023-08-25T03:24:57.550Z,0.30
2023-08-25T03:29:50.751Z,0.52
2023-08-25T03:32:17.417Z,0.40
2023-08-25T03:37:12.839Z,0.35
2023-08-25T03:39:39.896Z,0.60
2023-08-25T03:42:07.004Z,0.73
2023-08-25T03:44:33.712Z,0.45
2023-08-25T03:49:29.531Z,0.47
2023-08-25T03:51:57.585Z,0.50
2023-08-25T03:54:24.397Z,0.70
2023-08-25T03:56:51.117Z,0.63
2023-08-25T03:59:17.865Z,0.65
2023-08-25T04:04:11.030Z,0.47
2023-08-25T04:06:37.676Z,0.63
2023-08-25T04:11:31.021Z,0.55
2023-08-25T04:13:57.671Z,0.57
2023-08-25T04:18:51.127Z,0.90
2023-08-25T04:21:17.780Z,0.75
2023-08-25T04:23:44.393Z,0.60
2023-08-25T04:26:11.061Z,0.60
2023-08-25T04:31:04.286Z,0.80
2023-08-25T04:35:57.434Z,0.47
2023-08-25T04:38:24.229Z,0.60
2023-08-25T04:40:50.920Z,0.47
2023-08-25T04:45:44.205Z,0.65
2023-08-25T04:48:11.002Z,0.70
2023-08-25T04:50:37.707Z,0.70
2023-08-25T04:55:31.422Z,0.70
2023-08-25T04:57:58.085Z,0.50
2023-08-25T05:02:51.489Z,0.30
2023-08-25T05:05:18.846Z,0.80
2023-08-25T05:07:46.536Z,0.50
2023-08-25T05:10:13.512Z,0.70
2023-08-25T05:12:41.279Z,0.63
2023-08-25T05:15:09.125Z,0.77
2023-08-25T05:17:35.830Z,0.75
2023-08-25T05:22:29.172Z,0.70
2023-08-25T05:27:22.481Z,0.70
2023-08-25T05:29:49.670Z,0.70
2023-08-25T05:32:16.363Z,0.85
2023-08-25T05:34:43.145Z,0.95
2023-08-25T05:39:36.314Z,0.68
2023-08-25T05:44:29.596Z,0.80
2023-08-25T05:49:22.750Z,0.77
2023-08-25T05:51:50.948Z,0.93
2023-08-25T05:54:17.628Z,0.60
2023-08-25T05:56:45.229Z,0.80
2023-08-25T05:59:11.895Z,0.85
2023-08-25T06:01:38.573Z,0.80
2023-08-25T06:04:05.826Z,0.70
2023-08-25T06:06:32.478Z,0.82
2023-08-25T06:08:59.206Z,0.82
2023-08-25T06:11:26.201Z,0.98
2023-08-25T06:13:52.835Z,1.00
2023-08-25T06:16:19.905Z,0.65
2023-08-25T06:18:46.653Z,0.60
2023-08-25T06:21:13.445Z,0.90
2023-08-25T06:23:40.099Z,0.50
2023-08-25T06:26:07.658Z,1.10
2023-08-25T06:28:34.880Z,0.70
2023-08-25T06:31:01.893Z,0.70
2023-08-25T06:33:31.213Z,0.80
2023-08-25T06:35:58.510Z,0.55
2023-08-25T06:38:25.177Z,0.77
2023-08-25T06:40:53.592Z,0.80
2023-08-25T06:43:20.362Z,0.50
2023-08-25T06:45:47.772Z,0.55
2023-08-25T06:48:14.758Z,0.75
2023-08-25T06:50:41.990Z,0.77
2023-08-25T06:53:09.021Z,0.68
2023-08-25T06:55:36.353Z,0.65
2023-08-25T06:58:04.053Z,1.13
2023-08-25T07:00:30.822Z,0.70
2023-08-25T07:02:57.568Z,1.10
2023-08-25T07:05:25.180Z,1.00
2023-08-25T07:07:55.014Z,0.50
2023-08-25T07:10:22.043Z,0.82
2023-08-25T07:12:48.748Z,1.00
2023-08-25T07:15:15.516Z,0.90
2023-08-25T07:17:42.321Z,1.00
2023-08-25T07:20:10.056Z,1.30
2023-08-25T07:22:36.794Z,0.85
2023-08-25T07:25:03.717Z,0.70
2023-08-25T07:27:31.113Z,1.10
2023-08-25T07:29:59.521Z,0.82
2023-08-25T07:32:28.516Z,0.73
2023-08-25T07:34:56.735Z,0.93
2023-08-25T07:37:23.677Z,0.77
2023-08-25T07:39:52.403Z,1.00
2023-08-25T07:42:20.055Z,0.70
2023-08-25T07:44:48.416Z,0.65
2023-08-25T07:47:15.129Z,0.90
2023-08-25T07:49:42.006Z,1.00
2023-08-25T07:52:08.717Z,1.23
2023-08-25T07:54:35.371Z,1.08
2023-08-25T07:57:02.167Z,0.98
2023-08-25T07:59:28.863Z,1.00
2023-08-25T08:01:55.792Z,0.90
2023-08-25T08:04:22.605Z,0.98
2023-08-25T08:06:50.136Z,1.00
2023-08-25T08:09:16.886Z,0.82
2023-08-25T08:11:43.543Z,0.80
2023-08-25T08:14:10.306Z,1.33
2023-08-25T08:16:38.525Z,0.75
2023-08-25T08:19:06.429Z,1.08
2023-08-25T08:21:33.674Z,1.60
2023-08-25T08:24:01.933Z,1.02
2023-08-25T08:26:28.782Z,0.95
2023-08-25T08:28:55.440Z,0.88
2023-08-25T08:31:23.291Z,1.17
2023-08-25T08:33:50.147Z,1.40
2023-08-25T08:36:17.752Z,0.93
2023-08-25T08:38:44.567Z,1.05
2023-08-25T08:41:12.552Z,1.25
2023-08-25T08:43:42.684Z,1.00
2023-08-25T08:46:11.380Z,1.27
2023-08-25T08:48:38.738Z,1.20
2023-08-25T08:51:07.520Z,1.23
2023-08-25T08:53:34.522Z,1.40
2023-08-25T08:56:03.270Z,1.10
2023-08-25T08:58:31.013Z,1.05
2023-08-25T09:00:58.367Z,1.00
2023-08-25T09:03:31.309Z,1.10
2023-08-25T09:06:04.265Z,1.08
2023-08-25T09:08:36.814Z,1.33
2023-08-25T09:11:05.200Z,1.50
2023-08-25T09:13:36.115Z,1.75
2023-08-25T09:16:15.628Z,1.17
2023-08-25T09:18:42.902Z,1.42
2023-08-25T09:21:23.540Z,1.38
2023-08-25T09:24:00.383Z,1.40
2023-08-25T09:26:28.700Z,1.33
2023-08-25T09:28:58.393Z,1.42
2023-08-25T09:31:30.192Z,1.80
2023-08-25T09:34:02.852Z,1.60
2023-08-25T09:36:30.212Z,1.70
2023-08-25T09:39:00.960Z,1.50
2023-08-25T09:41:30.293Z,1.35
2023-08-25T09:44:01.887Z,1.20
2023-08-25T09:46:33.526Z,1.23
2023-08-25T09:49:08.244Z,1.48
2023-08-25T09:51:43.875Z,1.90
2023-08-25T09:54:17.157Z,1.60
2023-08-25T09:56:47.621Z,1.65
2023-08-25T09:59:16.090Z,1.95
2023-08-25T10:01:47.022Z,1.63
2023-08-25T10:04:18.218Z,1.65
2023-08-25T10:06:44.879Z,2.40
2023-08-25T10:09:11.755Z,2.00
2023-08-25T10:11:41.580Z,1.70
2023-08-25T10:14:11.581Z,1.60
2023-08-25T10:16:51.840Z,2.05
2023-08-25T10:19:26.255Z,2.15
2023-08-25T10:21:54.305Z,1.98
2023-08-25T10:24:22.653Z,1.30
2023-08-25T10:26:51.877Z,1.70
2023-08-25T10:29:23.541Z,1.70
2023-08-25T10:31:53.260Z,1.35
2023-08-25T10:34:43.022Z,1.70
2023-08-25T10:37:14.516Z,1.90
2023-08-25T10:39:53.423Z,1.90
2023-08-25T10:42:31.891Z,1.60
2023-08-25T10:45:09.909Z,2.10
2023-08-25T10:47:46.578Z,1.90
2023-08-25T10:50:14.975Z,2.17
2023-08-25T10:52:45.557Z,1.95
2023-08-25T10:55:33.122Z,1.77
2023-08-25T10:58:11.091Z,1.75
2023-08-25T11:00:44.516Z,1.95
2023-08-25T11:03:11.858Z,2.13
2023-08-25T11:05:44.881Z,1.88
2023-08-25T11:08:29.054Z,2.22
2023-08-25T11:11:13.771Z,2.20
2023-08-25T11:13:41.909Z,2.00
2023-08-25T11:16:11.208Z,1.90
2023-08-25T11:18:40.688Z,2.20
2023-08-25T11:21:07.383Z,2.00
2023-08-25T11:23:42.644Z,2.38
2023-08-25T11:26:09.899Z,2.25
2023-08-25T11:28:37.450Z,1.98
2023-08-25T11:31:05.054Z,2.10
2023-08-25T11:33:35.455Z,2.20
2023-08-25T11:36:04.946Z,2.13
2023-08-25T11:38:34.942Z,2.03
2023-08-25T11:41:01.612Z,2.00
2023-08-25T11:43:34.069Z,2.10
2023-08-25T11:46:01.616Z,1.60
2023-08-25T11:48:28.312Z,1.75
2023-08-25T11:50:54.965Z,2.00
2023-08-25T11:53:22.088Z,1.92
2023-08-25T11:56:07.346Z,1.83
2023-08-25T11:58:35.700Z,1.80
2023-08-25T12:01:05.849Z,1.83
2023-08-25T12:03:34.744Z,1.90
2023-08-25T12:06:06.401Z,2.22
2023-08-25T12:08:34.725Z,2.03
2023-08-25T12:11:02.063Z,1.80
2023-08-25T12:13:31.242Z,1.67
2023-08-25T12:15:58.340Z,1.70
2023-08-25T12:18:33.932Z,1.70
2023-08-25T12:21:02.279Z,1.67
2023-08-25T12:23:39.779Z,2.08
2023-08-25T12:26:09.493Z,1.52
2023-08-25T12:28:36.427Z,1.23
2023-08-25T12:31:05.288Z,1.50
2023-08-25T12:33:32.682Z,1.40
2023-08-25T12:36:00.140Z,1.60
2023-08-25T12:38:27.503Z,1.70
2023-08-25T12:40:54.288Z,1.70
2023-08-25T12:43:21.165Z,1.90
2023-08-25T12:45:49.385Z,1.70
2023-08-25T12:48:17.138Z,1.50
2023-08-25T12:50:43.905Z,1.55
2023-08-25T12:53:10.701Z,1.73
2023-08-25T12:55:37.403Z,1.73
2023-08-25T12:58:04.575Z,1.65
2023-08-25T13:00:31.437Z,1.73
2023-08-25T13:02:58.643Z,2.17
2023-08-25T13:05:26.255Z,2.05
2023-08-25T13:07:53.477Z,1.88
2023-08-25T13:10:20.404Z,1.80
2023-08-25T13:12:47.216Z,1.70
2023-08-25T13:15:14.115Z,1.90
2023-08-25T13:17:41.736Z,2.20
2023-08-25T13:20:08.913Z,2.10
2023-08-25T13:22:35.575Z,2.00
2023-08-25T13:25:02.336Z,2.10
2023-08-25T13:27:29.359Z,2.03
2023-08-25T13:29:56.262Z,2.17
2023-08-25T13:32:23.178Z,2.53
2023-08-25T13:34:49.900Z,2.10
2023-08-25T13:37:18.261Z,2.10
2023-08-25T13:39:45.107Z,2.10
2023-08-25T13:42:13.193Z,2.28
2023-08-25T13:44:40.110Z,2.58
2023-08-25T13:47:09.813Z,2.17
2023-08-25T13:49:37.896Z,2.60
2023-08-25T13:52:04.841Z,3.30
2023-08-25T13:54:32.075Z,2.50
2023-08-25T13:56:59.380Z,2.10
2023-08-25T13:59:26.716Z,2.00
2023-08-25T14:01:53.512Z,1.75
2023-08-25T14:04:20.238Z,1.95
2023-08-25T14:06:46.961Z,1.95
2023-08-25T14:09:13.771Z,2.20
2023-08-25T14:11:40.438Z,2.25
2023-08-25T14:14:07.161Z,2.97
2023-08-25T14:16:35.709Z,2.47
2023-08-25T14:19:03.215Z,2.20
2023-08-25T14:21:29.849Z,1.80
2023-08-25T14:23:58.020Z,2.25
2023-08-25T14:26:27.391Z,2.22
2023-08-25T14:28:54.229Z,2.10
2023-08-25T14:31:20.894Z,2.30
2023-08-25T14:33:47.624Z,2.40
2023-08-25T14:36:14.764Z,2.30
2023-08-25T14:38:41.478Z,1.95
2023-08-25T14:41:08.457Z,2.42
2023-08-25T14:43:35.405Z,1.98
2023-08-25T14:46:02.422Z,2.13
2023-08-25T14:48:29.188Z,2.38
2023-08-25T14:51:01.156Z,2.40
2023-08-25T14:53:28.302Z,2.08
2023-08-25T14:55:55.381Z,2.03
2023-08-25T14:58:22.963Z,2.08
2023-08-25T15:00:55.990Z,2.28
2023-08-25T15:03:23.216Z,2.30
2023-08-25T15:05:56.971Z,2.30
2023-08-25T15:08:25.608Z,2.70
2023-08-25T15:10:52.344Z,1.85
2023-08-25T15:13:19.040Z,2.40
2023-08-25T15:15:46.333Z,1.92
2023-08-25T15:18:13.432Z,2.10
2023-08-25T15:20:41.114Z,2.88
2023-08-25T15:23:08.142Z,2.28
2023-08-25T15:25:34.814Z,2.22
2023-08-25T15:28:01.460Z,1.98
2023-08-25T15:30:28.094Z,2.45
2023-08-25T15:32:54.826Z,2.10
2023-08-25T15:35:23.281Z,2.22
2023-08-25T15:37:50.421Z,2.30
2023-08-25T15:40:19.318Z,2.10
2023-08-25T15:42:45.942Z,2.25
2023-08-25T15:45:12.570Z,2.40
2023-08-25T15:47:39.289Z,2.38
2023-08-25T15:50:07.160Z,2.20
2023-08-25T15:52:33.845Z,2.83
2023-08-25T15:55:00.483Z,2.20
2023-08-25T15:57:40.898Z,2.30
2023-08-25T16:00:09.705Z,2.17
2023-08-25T16:02:36.411Z,2.00
2023-08-25T16:05:03.130Z,2.45
2023-08-25T16:07:29.767Z,2.58
2023-08-25T16:09:56.480Z,2.30
2023-08-25T16:12:24.268Z,2.22
2023-08-25T16:14:50.917Z,2.28
2023-08-25T16:17:17.544Z,1.90
2023-08-25T16:19:44.181Z,2.30
2023-08-25T16:22:10.870Z,2.20
2023-08-25T16:24:38.398Z,2.03
2023-08-25T16:27:05.271Z,1.88
2023-08-25T16:29:31.937Z,2.13
2023-08-25T16:31:58.577Z,2.30
2023-08-25T16:34:25.249Z,2.08
2023-08-25T16:36:51.937Z,2.33
2023-08-25T16:39:18.577Z,1.77
2023-08-25T16:41:45.216Z,1.60
2023-08-25T16:44:12.049Z,2.10
2023-08-25T16:46:38.938Z,2.10
2023-08-25T16:49:05.889Z,2.33
2023-08-25T16:51:32.554Z,2.45
2023-08-25T16:53:59.344Z,3.08
2023-08-25T16:56:26.077Z,2.60
2023-08-25T16:58:54.141Z,2.28
2023-08-25T17:01:21.018Z,2.22
2023-08-25T17:03:52.459Z,2.60
2023-08-25T17:06:20.109Z,2.47
2023-08-25T17:08:47.150Z,2.50
2023-08-25T17:11:14.805Z,3.15
2023-08-25T17:13:44.594Z,3.08
2023-08-25T17:16:12.862Z,2.30
2023-08-25T17:18:39.714Z,2.20
2023-08-25T17:21:06.548Z,2.00
2023-08-25T17:23:33.669Z,2.60
2023-08-25T17:26:00.583Z,2.03
2023-08-25T17:28:30.804Z,2.50
2023-08-25T17:31:11.335Z,2.17
2023-08-25T17:33:38.714Z,2.50
2023-08-25T17:36:07.916Z,2.42
2023-08-25T17:38:35.418Z,2.55
2023-08-25T17:41:07.769Z,2.53
2023-08-25T17:43:35.477Z,2.38
2023-08-25T17:46:04.791Z,2.22
2023-08-25T17:48:33.683Z,1.90
2023-08-25T17:51:01.099Z,2.20
2023-08-25T17:53:28.582Z,2.53
2023-08-25T17:55:57.338Z,3.17
2023-08-25T17:58:24.696Z,3.20
2023-08-25T18:01:02.380Z,3.17
2023-08-25T18:03:29.189Z,3.22
2023-08-25T18:05:55.904Z,3.03
2023-08-25T18:08:22.694Z,2.30
2023-08-25T18:10:50.033Z,2.40
2023-08-25T18:13:16.657Z,2.33
2023-08-25T18:15:43.335Z,2.70
2023-08-25T18:18:10.053Z,2.53
2023-08-25T18:20:36.712Z,2.85
2023-08-25T18:23:03.847Z,2.80
2023-08-25T18:25:30.652Z,3.22
2023-08-25T18:27:57.284Z,3.42
2023-08-25T18:30:26.939Z,3.20
2023-08-25T18:32:54.204Z,2.83
2023-08-25T18:35:21.268Z,2.88
2023-08-25T18:37:47.937Z,2.40
2023-08-25T18:40:14.724Z,2.58
2023-08-25T18:42:41.455Z,2.13
2023-08-25T18:45:08.647Z,2.00
2023-08-25T18:47:35.387Z,2.20
2023-08-25T18:50:02.122Z,2.40
2023-08-25T18:52:28.877Z,1.85
2023-08-25T18:54:55.554Z,1.98
2023-08-25T18:57:26.589Z,2.17
2023-08-25T18:59:54.037Z,2.35
2023-08-25T19:02:21.677Z,2.50
2023-08-25T19:04:48.481Z,2.85
2023-08-25T19:07:15.422Z,2.15
2023-08-25T19:09:47.617Z,2.20
2023-08-25T19:12:15.986Z,2.40
2023-08-25T19:14:43.080Z,2.28
2023-08-25T19:17:09.784Z,2.35
2023-08-25T19:19:38.203Z,2.00
2023-08-25T19:22:06.606Z,2.40
2023-08-25T19:24:33.992Z,2.30
2023-08-25T19:27:01.662Z,2.33
2023-08-25T19:29:28.374Z,2.40
2023-08-25T19:31:54.991Z,1.98
2023-08-25T19:34:21.745Z,2.47
2023-08-25T19:36:48.483Z,2.47
2023-08-25T19:39:15.357Z,2.70
2023-08-25T19:41:42.332Z,2.30
2023-08-25T19:44:09.444Z,2.03
2023-08-25T19:46:36.407Z,2.50
2023-08-25T19:49:04.877Z,2.70
2023-08-25T19:51:31.573Z,2.40
2023-08-25T19:53:58.432Z,2.92
2023-08-25T19:56:25.348Z,2.25
2023-08-25T19:58:52.850Z,2.50
2023-08-25T20:01:20.174Z,2.10
2023-08-25T20:03:47.592Z,2.42
2023-08-25T20:06:14.527Z,2.30
2023-08-25T20:08:41.183Z,2.53
2023-08-25T20:11:08.803Z,2.05
2023-08-25T20:13:37.400Z,1.80
2023-08-25T20:16:04.487Z,2.33
2023-08-25T20:18:31.236Z,2.45
2023-08-25T20:20:58.523Z,2.20
2023-08-25T20:23:25.546Z,2.00
2023-08-25T20:25:55.673Z,2.67
2023-08-25T20:28:22.936Z,2.08
2023-08-25T20:30:49.631Z,2.60
2023-08-25T20:33:17.972Z,2.30
2023-08-25T20:35:46.050Z,2.05
2023-08-25T20:38:13.582Z,2.08
2023-08-25T20:40:44.393Z,2.25
2023-08-25T20:43:14.006Z,1.90
2023-08-25T20:45:44.147Z,2.28
2023-08-25T20:48:11.156Z,1.98
2023-08-25T20:50:37.919Z,2.22
2023-08-25T20:53:04.907Z,2.25
2023-08-25T20:55:31.629Z,1.65
2023-08-25T20:57:58.329Z,1.55
2023-08-25T21:00:25.217Z,1.63
2023-08-25T21:02:51.954Z,1.35
2023-08-25T21:05:18.693Z,2.03
2023-08-25T21:07:45.414Z,1.70
2023-08-25T21:10:12.181Z,1.73
2023-08-25T21:12:39.057Z,2.00
2023-08-25T21:15:07.338Z,2.10
2023-08-25T21:17:34.446Z,1.98
2023-08-25T21:20:01.234Z,1.90
2023-08-25T21:22:27.857Z,1.63
2023-08-25T21:24:54.544Z,1.77
2023-08-25T21:29:48.181Z,2.15
2023-08-25T21:32:14.910Z,2.08
2023-08-25T21:34:41.668Z,1.63
2023-08-25T21:37:08.485Z,1.80
2023-08-25T21:39:35.182Z,1.67
2023-08-25T21:42:01.842Z,3.00
2023-08-25T21:44:28.523Z,1.70
2023-08-25T21:46:55.165Z,1.85
2023-08-25T21:51:48.443Z,2.38
2023-08-25T21:56:41.626Z,1.90
2023-08-25T22:01:36.724Z,2.20
2023-08-25T22:04:04.641Z,2.00
2023-08-25T22:06:33.213Z,1.75
2023-08-25T22:08:59.954Z,1.90
2023-08-25T22:11:26.677Z,1.80
2023-08-25T22:13:53.295Z,1.60
2023-08-25T22:18:46.866Z,1.48
2023-08-25T22:21:13.558Z,2.08
2023-08-25T22:26:07.418Z,2.33
2023-08-25T22:28:34.064Z,2.15
2023-08-25T22:35:59.097Z,2.00
2023-08-25T22:38:25.746Z,1.92
2023-08-25T22:43:22.601Z,1.60
2023-08-25T22:45:49.338Z,2.13
2023-08-25T22:48:17.657Z,1.63
2023-08-25T22:50:46.244Z,1.95
2023-08-25T22:53:13.020Z,1.75
2023-08-25T22:55:43.497Z,1.80
2023-08-25T22:58:10.363Z,1.92
2023-08-25T23:00:37.013Z,1.58
2023-08-25T23:05:38.993Z,1.70
2023-08-25T23:08:06.038Z,1.45
2023-08-25T23:10:39.678Z,1.83
2023-08-25T23:13:08.655Z,1.80
2023-08-25T23:15:36.450Z,1.63
2023-08-25T23:18:05.170Z,1.50
2023-08-25T23:20:32.160Z,1.77
2023-08-25T23:22:58.816Z,2.10
2023-08-25T23:27:52.050Z,1.98
2023-08-25T23:30:18.939Z,1.50
2023-08-25T23:32:46.080Z,1.55
2023-08-25T23:35:12.893Z,1.65
2023-08-25T23:37:39.605Z,1.50
2023-08-25T23:40:08.413Z,1.63
2023-08-25T23:42:35.333Z,1.85
2023-08-25T23:45:02.150Z,1.50
2023-08-25T23:47:28.881Z,1.60
2023-08-25T23:49:55.539Z,1.63
2023-08-25T23:54:48.914Z,1.60
2023-08-25T23:57:15.620Z,1.50
2023-08-25T23:59:42.336Z,1.73
